createdAt,value
2023-02-19T00:13:39.646Z,79.77
2023-02-19T00:19:44.215Z,79.88
2023-02-19T00:21:20.520Z,79.82
2023-02-19T00:25:05.470Z,79.78
2023-02-19T00:26:44.493Z,79.81
2023-02-19T00:28:26.079Z,79.66
2023-02-19T00:29:58.897Z,79.75
2023-02-19T00:31:33.160Z,79.43
2023-02-19T00:33:42.772Z,79.51
2023-02-19T00:35:21.019Z,79.34
2023-02-19T00:37:16.239Z,79.42
2023-02-19T00:38:47.869Z,79.24
2023-02-19T00:40:34.251Z,79.34
2023-02-19T00:42:20.969Z,79.27
2023-02-19T00:43:45.538Z,79.16
2023-02-19T00:45:37.885Z,79.25
2023-02-19T00:47:38.538Z,79.00
2023-02-19T00:49:09.732Z,79.24
2023-02-19T00:50:39.074Z,79.14
2023-02-19T00:52:38.036Z,79.29
2023-02-19T00:54:17.903Z,79.33
2023-02-19T00:55:59.664Z,79.17
2023-02-19T00:57:48.811Z,79.14
2023-02-19T00:59:14.453Z,79.19
2023-02-19T01:02:48.225Z,79.13
2023-02-19T01:04:38.126Z,79.02
2023-02-19T01:06:18.149Z,78.93
2023-02-19T01:07:51.134Z,79.25
2023-02-19T01:09:28.966Z,79.37
2023-02-19T01:11:26.066Z,78.97
2023-02-19T01:12:53.520Z,79.15
2023-02-19T01:17:30.486Z,79.35
2023-02-19T01:19:09.748Z,79.37
2023-02-19T01:20:37.202Z,79.47
2023-02-19T01:21:59.481Z,79.67
2023-02-19T01:23:24.339Z,79.71
2023-02-19T01:24:49.262Z,79.95
2023-02-19T01:26:16.243Z,79.75
2023-02-19T01:27:40.398Z,79.88
2023-02-19T01:29:05.449Z,79.93
2023-02-19T01:30:32.661Z,79.66
2023-02-19T01:32:02.244Z,79.90
2023-02-19T01:34:11.686Z,79.84
2023-02-19T01:38:22.991Z,79.84
2023-02-19T01:39:51.950Z,79.95
2023-02-19T01:41:19.116Z,79.87
2023-02-19T01:42:46.362Z,79.68
2023-02-19T01:46:10.071Z,79.80
2023-02-19T01:48:00.475Z,79.70
2023-02-19T01:49:42.231Z,79.82
2023-02-19T01:51:34.734Z,79.83
2023-02-19T01:53:30.883Z,80.10
2023-02-19T01:55:20.443Z,79.95
2023-02-19T01:56:50.782Z,79.99
2023-02-19T01:58:19.834Z,80.06
2023-02-19T01:59:48.337Z,80.35
2023-02-19T02:01:23.101Z,80.23
2023-02-19T02:03:03.901Z,80.12
2023-02-19T02:04:28.551Z,80.38
2023-02-19T02:05:58.047Z,80.44
2023-02-19T02:07:46.386Z,80.46
2023-02-19T02:09:37.460Z,80.52
2023-02-19T02:11:00.250Z,80.33
2023-02-19T02:12:24.162Z,80.20
2023-02-19T02:13:48.984Z,80.40
2023-02-19T02:15:12.258Z,80.40
2023-02-19T02:16:45.267Z,79.99
2023-02-19T02:18:23.778Z,80.21
2023-02-19T02:20:04.221Z,80.17
2023-02-19T02:21:50.727Z,80.18
2023-02-19T02:23:24.280Z,80.16
2023-02-19T02:25:03.053Z,80.19
2023-02-19T02:26:45.186Z,80.29
2023-02-19T02:28:48.316Z,80.34
2023-02-19T02:30:39.442Z,80.30
2023-02-19T02:32:08.447Z,80.30
2023-02-19T02:33:35.549Z,80.25
2023-02-19T02:35:02.174Z,80.20
2023-02-19T02:36:33.152Z,80.10
2023-02-19T02:37:58.578Z,80.28
2023-02-19T02:39:29.046Z,80.20
2023-02-19T02:41:07.729Z,80.07
2023-02-19T02:42:48.104Z,80.23
2023-02-19T02:44:14.244Z,80.18
2023-02-19T02:45:43.837Z,80.05
2023-02-19T02:47:42.614Z,80.21
2023-02-19T02:49:10.655Z,80.27
2023-02-19T02:50:36.686Z,80.30
2023-02-19T02:52:26.348Z,80.17
2023-02-19T02:54:38.900Z,80.26
2023-02-19T02:56:06.095Z,80.38
2023-02-19T02:57:31.399Z,80.27
2023-02-19T02:58:53.883Z,80.29
2023-02-19T03:00:16.904Z,80.32
2023-02-19T03:03:51.549Z,80.37
2023-02-19T03:05:44.417Z,80.41
2023-02-19T03:07:13.611Z,80.43
2023-02-19T03:08:45.851Z,80.55
2023-02-19T03:10:48.094Z,80.50
2023-02-19T03:12:32.744Z,80.58
2023-02-19T03:14:23.570Z,80.90
2023-02-19T03:16:08.471Z,80.72
2023-02-19T03:17:54.394Z,80.88
2023-02-19T03:19:22.176Z,80.54
2023-02-19T03:20:50.298Z,80.79
2023-02-19T03:22:20.130Z,80.67
2023-02-19T03:24:00.861Z,80.84
2023-02-19T03:25:53.015Z,80.48
2023-02-19T03:27:29.213Z,80.82
2023-02-19T03:29:14.472Z,80.90
2023-02-19T03:30:43.438Z,80.76
2023-02-19T03:32:10.345Z,80.66
2023-02-19T03:33:35.681Z,80.95
2023-02-19T03:35:11.329Z,80.90
2023-02-19T03:36:42.780Z,80.92
2023-02-19T03:38:10.555Z,81.06
2023-02-19T03:39:44.508Z,80.93
2023-02-19T03:41:17.151Z,80.89
2023-02-19T03:42:48.024Z,81.11
2023-02-19T03:44:20.029Z,81.07
2023-02-19T03:45:55.216Z,81.27
2023-02-19T03:50:07.794Z,81.08
2023-02-19T03:52:30.753Z,81.21
2023-02-19T03:54:17.551Z,81.01
2023-02-19T03:56:10.011Z,81.23
2023-02-19T03:58:15.605Z,81.42
2023-02-19T04:00:10.447Z,81.39
2023-02-19T04:02:05.795Z,81.08
2023-02-19T04:03:54.442Z,81.10
2023-02-19T04:07:14.084Z,81.21
2023-02-19T04:08:50.203Z,81.28
2023-02-19T04:10:30.455Z,81.29
2023-02-19T04:12:23.690Z,81.39
2023-02-19T04:14:24.385Z,81.27
2023-02-19T04:16:08.692Z,81.21
2023-02-19T04:20:49.379Z,81.48
2023-02-19T04:22:44.558Z,81.38
2023-02-19T04:24:29.089Z,81.22
2023-02-19T04:26:12.867Z,81.40
2023-02-19T04:28:06.007Z,81.24
2023-02-19T04:31:47.593Z,81.39
2023-02-19T04:33:29.099Z,81.30
2023-02-19T04:35:03.637Z,81.40
2023-02-19T04:36:43.175Z,81.35
2023-02-19T04:38:41.339Z,81.18
2023-02-19T04:40:44.727Z,80.95
2023-02-19T04:42:16.861Z,80.94
2023-02-19T04:44:14.482Z,81.25
2023-02-19T04:45:56.355Z,80.88
2023-02-19T04:47:33.279Z,80.87
2023-02-19T04:49:08.128Z,80.98
2023-02-19T04:50:49.101Z,80.83
2023-02-19T04:55:09.711Z,80.87
2023-02-19T04:56:32.045Z,80.93
2023-02-19T04:57:53.474Z,81.01
2023-02-19T04:59:19.040Z,80.67
2023-02-19T05:00:41.760Z,81.04
2023-02-19T05:02:04.377Z,80.78
2023-02-19T05:03:29.912Z,80.59
2023-02-19T05:04:51.516Z,80.66
2023-02-19T05:06:15.345Z,80.40
2023-02-19T05:07:37.530Z,80.50
2023-02-19T05:09:00.289Z,80.45
2023-02-19T05:10:23.070Z,80.55
2023-02-19T05:11:48.455Z,80.52
2023-02-19T05:13:09.932Z,80.51
2023-02-19T05:14:32.447Z,80.63
2023-02-19T05:15:59.013Z,80.39
2023-02-19T05:17:20.513Z,80.59
2023-02-19T05:18:43.631Z,80.44
2023-02-19T05:20:08.505Z,80.33
2023-02-19T05:21:30.973Z,80.51
2023-02-19T05:22:54.709Z,80.52
2023-02-19T05:24:17.045Z,80.56
2023-02-19T05:25:40.582Z,80.34
2023-02-19T05:27:03.224Z,80.38
2023-02-19T05:28:29.008Z,80.43
2023-02-19T05:29:51.375Z,80.71
2023-02-19T05:31:14.767Z,80.56
2023-02-19T05:32:36.588Z,80.54
2023-02-19T05:33:58.977Z,80.51
2023-02-19T05:35:22.765Z,80.47
2023-02-19T05:36:45.573Z,80.23
2023-02-19T05:38:08.206Z,80.21
2023-02-19T05:39:30.374Z,80.34
2023-02-19T05:40:53.011Z,80.63
2023-02-19T05:42:18.774Z,80.65
2023-02-19T05:43:41.294Z,80.26
2023-02-19T05:45:03.426Z,80.22
2023-02-19T05:46:27.786Z,80.11
2023-02-19T05:47:49.695Z,80.14
2023-02-19T05:49:11.839Z,80.20
2023-02-19T05:50:34.974Z,80.06
2023-02-19T05:52:11.557Z,80.24
2023-02-19T05:53:36.056Z,80.04
2023-02-19T05:55:01.091Z,80.01
2023-02-19T05:56:32.756Z,79.98
2023-02-19T05:57:56.234Z,80.14
2023-02-19T05:59:19.903Z,80.23
2023-02-19T06:00:42.260Z,80.31
2023-02-19T06:02:04.785Z,80.32
2023-02-19T06:03:26.005Z,80.37
2023-02-19T06:04:48.378Z,80.24
2023-02-19T06:06:10.936Z,80.39
2023-02-19T06:07:39.538Z,80.19
2023-02-19T06:09:01.883Z,80.33
2023-02-19T06:10:24.191Z,80.30
2023-02-19T06:11:47.989Z,80.40
2023-02-19T06:13:10.018Z,80.32
2023-02-19T06:14:32.037Z,80.66
2023-02-19T06:15:54.316Z,80.45
2023-02-19T06:17:16.769Z,80.37
2023-02-19T06:18:40.568Z,80.15
2023-02-19T06:20:03.403Z,80.01
2023-02-19T06:21:24.719Z,80.02
2023-02-19T06:22:48.169Z,80.03
2023-02-19T06:24:11.290Z,79.88
2023-02-19T06:25:38.550Z,80.03
2023-02-19T06:27:01.589Z,80.10
2023-02-19T06:28:25.456Z,80.12
2023-02-19T06:29:47.855Z,80.09
2023-02-19T06:31:10.883Z,79.78
2023-02-19T06:32:33.783Z,79.84
2023-02-19T06:33:56.427Z,79.84
2023-02-19T06:35:25.597Z,79.82
2023-02-19T06:36:51.922Z,79.44
2023-02-19T06:38:14.577Z,79.61
2023-02-19T06:39:37.167Z,79.60
2023-02-19T06:41:05.175Z,79.64
2023-02-19T06:42:29.256Z,79.69
2023-02-19T06:43:52.050Z,79.63
2023-02-19T06:45:16.101Z,79.66
2023-02-19T06:46:40.957Z,79.74
2023-02-19T06:48:02.248Z,79.85
2023-02-19T06:49:25.116Z,79.85
2023-02-19T06:50:49.004Z,79.98
2023-02-19T06:52:11.399Z,79.87
2023-02-19T06:53:33.796Z,79.92
2023-02-19T06:54:55.987Z,79.88
2023-02-19T06:56:23.500Z,80.17
2023-02-19T06:57:47.562Z,79.95
2023-02-19T06:59:12.983Z,80.10
2023-02-19T07:00:35.221Z,80.05
2023-02-19T07:01:57.796Z,80.17
2023-02-19T07:03:21.287Z,80.21
2023-02-19T07:04:45.301Z,80.01
2023-02-19T07:06:08.563Z,79.82
2023-02-19T07:07:31.048Z,79.74
2023-02-19T07:08:55.529Z,79.65
2023-02-19T07:10:18.124Z,79.74
2023-02-19T07:11:43.461Z,79.79
2023-02-19T07:13:06.393Z,79.55
2023-02-19T07:14:29.930Z,79.53
2023-02-19T07:15:52.265Z,79.35
2023-02-19T07:17:18.171Z,79.01
2023-02-19T07:18:47.330Z,79.09
2023-02-19T07:20:15.202Z,79.17
2023-02-19T07:21:42.856Z,79.17
2023-02-19T07:23:05.038Z,79.26
2023-02-19T07:24:30.457Z,79.47
2023-02-19T07:25:52.021Z,79.24
2023-02-19T07:27:15.225Z,79.44
2023-02-19T07:28:41.134Z,79.67
2023-02-19T07:30:09.323Z,79.77
2023-02-19T07:31:38.502Z,79.67
2023-02-19T07:33:00.210Z,79.40
2023-02-19T07:34:24.046Z,79.51
2023-02-19T07:35:47.780Z,79.22
2023-02-19T07:37:18.527Z,79.27
2023-02-19T07:38:40.505Z,79.41
2023-02-19T07:40:15.834Z,79.32
2023-02-19T07:41:42.715Z,79.45
2023-02-19T07:43:06.556Z,79.40
2023-02-19T07:44:38.725Z,79.34
2023-02-19T07:46:05.685Z,79.35
2023-02-19T07:47:37.968Z,79.19
2023-02-19T07:49:02.178Z,78.97
2023-02-19T07:50:27.768Z,79.08
2023-02-19T07:51:53.167Z,78.93
2023-02-19T07:53:16.014Z,78.95
2023-02-19T07:54:38.592Z,79.11
2023-02-19T07:56:02.082Z,78.99
2023-02-19T07:57:29.916Z,78.96
2023-02-19T07:58:57.595Z,78.95
2023-02-19T08:00:24.327Z,78.63
2023-02-19T08:02:04.125Z,78.57
2023-02-19T08:03:29.311Z,78.80
2023-02-19T08:04:50.480Z,78.86
2023-02-19T08:06:15.887Z,78.83
2023-02-19T08:07:37.921Z,78.90
2023-02-19T08:09:00.688Z,78.60
2023-02-19T08:10:45.539Z,78.87
2023-02-19T08:12:25.591Z,78.70
2023-02-19T08:13:49.966Z,78.38
2023-02-19T08:15:15.147Z,78.41
2023-02-19T08:16:43.240Z,78.14
2023-02-19T08:18:09.641Z,78.19
2023-02-19T08:19:35.080Z,78.06
2023-02-19T08:21:23.144Z,78.41
2023-02-19T08:22:45.591Z,78.17
2023-02-19T08:24:08.444Z,78.15
2023-02-19T08:25:33.117Z,77.77
2023-02-19T08:26:57.972Z,77.85
2023-02-19T08:28:38.619Z,77.62
2023-02-19T08:30:03.912Z,77.79
2023-02-19T08:31:36.815Z,77.72
2023-02-19T08:33:04.079Z,77.77
2023-02-19T08:34:27.360Z,77.83
2023-02-19T08:35:55.710Z,77.80
2023-02-19T08:37:19.019Z,77.94
2023-02-19T08:38:41.978Z,77.79
2023-02-19T08:40:04.974Z,78.02
2023-02-19T08:41:32.239Z,78.05
2023-02-19T08:42:55.167Z,78.08
2023-02-19T08:44:18.832Z,78.01
2023-02-19T08:45:45.915Z,77.96
2023-02-19T08:47:12.360Z,77.79
2023-02-19T08:48:36.247Z,77.63
2023-02-19T08:49:59.825Z,77.20
2023-02-19T08:51:25.024Z,77.03
2023-02-19T08:52:49.305Z,76.87
2023-02-19T08:54:21.591Z,76.70
2023-02-19T08:55:53.424Z,76.67
2023-02-19T08:57:16.174Z,76.37
2023-02-19T08:58:42.778Z,75.92
2023-02-19T09:00:06.652Z,75.93
2023-02-19T09:01:32.922Z,76.08
2023-02-19T09:03:00.910Z,76.13
2023-02-19T09:04:26.678Z,76.28
2023-02-19T09:06:04.363Z,76.18
2023-02-19T09:07:30.030Z,75.72
2023-02-19T09:08:55.796Z,75.73
2023-02-19T09:10:18.701Z,75.56
2023-02-19T09:11:41.671Z,75.38
2023-02-19T09:13:05.882Z,75.46
2023-02-19T09:14:40.946Z,75.07
2023-02-19T09:16:14.637Z,75.28
2023-02-19T09:17:39.952Z,75.05
2023-02-19T09:19:02.746Z,74.89
2023-02-19T09:20:36.357Z,75.05
2023-02-19T09:22:01.860Z,74.94
2023-02-19T09:23:27.581Z,74.90
2023-02-19T09:24:50.280Z,74.92
2023-02-19T09:26:14.313Z,74.75
2023-02-19T09:27:55.548Z,74.50
2023-02-19T09:29:39.462Z,74.21
2023-02-19T09:31:14.628Z,74.37
2023-02-19T09:32:45.805Z,74.66
2023-02-19T09:34:14.724Z,74.45
2023-02-19T09:35:46.111Z,74.24
2023-02-19T09:37:18.244Z,73.88
2023-02-19T09:38:57.657Z,73.27
2023-02-19T09:40:29.167Z,72.98
2023-02-19T09:42:02.851Z,72.37
2023-02-19T09:43:29.472Z,72.33
2023-02-19T09:44:59.368Z,72.12
2023-02-19T09:46:31.962Z,71.88
2023-02-19T09:48:00.854Z,71.68
2023-02-19T09:49:33.984Z,71.11
2023-02-19T09:51:03.213Z,70.88
2023-02-19T09:52:35.607Z,70.69
2023-02-19T09:54:00.738Z,70.75
2023-02-19T09:55:34.705Z,70.79
2023-02-19T09:57:06.920Z,70.47
2023-02-19T09:58:56.513Z,69.93
2023-02-19T10:00:40.130Z,69.93
2023-02-19T10:02:55.519Z,69.56
2023-02-19T10:04:53.429Z,69.38
2023-02-19T10:06:38.242Z,68.33
2023-02-19T10:08:10.879Z,67.95
2023-02-19T10:10:04.959Z,68.03
2023-02-19T10:11:39.231Z,67.18
2023-02-19T10:16:41.672Z,67.08
2023-02-19T10:18:18.668Z,66.23
2023-02-19T10:19:56.538Z,66.08
2023-02-19T10:23:52.182Z,66.21
2023-02-19T10:25:27.737Z,66.32
2023-02-19T10:27:42.816Z,66.24
2023-02-19T10:29:32.415Z,66.55
2023-02-19T10:31:11.872Z,66.10
2023-02-19T10:32:46.986Z,65.70
2023-02-19T10:34:38.913Z,65.17
2023-02-19T10:37:02.488Z,65.94
2023-02-19T10:38:39.341Z,65.93
2023-02-19T10:40:43.715Z,65.69
2023-02-19T10:42:21.388Z,66.18
2023-02-19T10:44:37.216Z,66.38
2023-02-19T10:46:28.911Z,66.75
2023-02-19T10:48:01.955Z,66.68
2023-02-19T10:49:54.705Z,65.99
2023-02-19T10:51:25.758Z,66.51
2023-02-19T10:53:51.330Z,66.66
2023-02-19T10:56:18.675Z,67.20
2023-02-19T10:58:02.050Z,67.37
2023-02-19T10:59:49.926Z,67.82
2023-02-19T11:03:34.992Z,67.86
2023-02-19T11:05:27.519Z,67.24
2023-02-19T11:06:55.099Z,66.92
2023-02-19T11:08:26.361Z,66.29
2023-02-19T11:10:01.980Z,65.94
2023-02-19T11:11:34.884Z,65.51
2023-02-19T11:13:09.458Z,65.53
2023-02-19T11:14:48.698Z,65.36
2023-02-19T11:16:26.660Z,65.43
2023-02-19T11:18:28.394Z,65.79
2023-02-19T11:20:42.465Z,65.67
2023-02-19T11:22:38.587Z,65.77
2023-02-19T11:24:49.600Z,65.93
2023-02-19T11:26:53.896Z,66.18
2023-02-19T11:28:36.731Z,66.23
2023-02-19T11:30:42.132Z,67.35
2023-02-19T11:35:43.495Z,67.18
2023-02-19T11:37:27.222Z,66.68
2023-02-19T11:39:34.014Z,66.44
2023-02-19T11:42:28.311Z,66.62
2023-02-19T11:45:03.367Z,67.17
2023-02-19T11:47:15.536Z,67.19
2023-02-19T11:49:40.956Z,67.48
2023-02-19T12:02:01.587Z,67.84
2023-02-19T12:04:00.195Z,67.53
2023-02-19T12:06:17.275Z,66.99
2023-02-19T12:08:34.516Z,66.64
2023-02-19T12:10:21.531Z,66.58
2023-02-19T12:12:06.272Z,65.46
2023-02-19T12:14:17.783Z,64.85
2023-02-19T12:18:33.349Z,64.67
2023-02-19T12:20:16.842Z,63.93
2023-02-19T12:22:02.866Z,63.90
2023-02-19T12:24:03.214Z,64.12
2023-02-19T12:26:00.581Z,64.04
2023-02-19T12:28:03.434Z,64.66
2023-02-19T12:30:03.841Z,64.25
2023-02-19T12:31:57.128Z,64.82
2023-02-19T12:33:46.833Z,64.59
2023-02-19T12:35:44.496Z,64.37
2023-02-19T12:37:23.072Z,64.16
2023-02-19T12:38:53.271Z,63.92
2023-02-19T12:40:32.052Z,63.60
2023-02-19T12:42:05.458Z,63.92
2023-02-19T12:43:31.070Z,64.23
2023-02-19T12:45:01.601Z,63.57
2023-02-19T12:46:40.615Z,63.08
2023-02-19T12:48:13.776Z,62.81
2023-02-19T12:49:40.917Z,63.02
2023-02-19T12:52:53.827Z,62.97
2023-02-19T12:54:27.746Z,62.60
2023-02-19T12:56:15.801Z,63.10
2023-02-19T12:57:44.592Z,62.94
2023-02-19T12:59:34.686Z,62.47
2023-02-19T13:01:05.977Z,61.97
2023-02-19T13:02:36.976Z,61.59
2023-02-19T13:04:22.624Z,61.28
2023-02-19T13:05:54.259Z,60.91
2023-02-19T13:07:30.205Z,60.52
2023-02-19T13:09:07.564Z,60.38
2023-02-19T13:10:37.452Z,60.22
2023-02-19T13:12:13.106Z,60.09
2023-02-19T13:13:45.898Z,59.89
2023-02-19T13:15:22.493Z,59.97
2023-02-19T13:17:01.534Z,59.87
2023-02-19T13:19:02.597Z,60.10
2023-02-19T13:20:55.089Z,61.09
2023-02-19T13:22:44.254Z,60.48
2023-02-19T13:24:15.904Z,60.44
2023-02-19T13:25:57.474Z,60.26
2023-02-19T13:27:48.203Z,61.01
2023-02-19T13:29:26.893Z,60.88
2023-02-19T13:34:23.351Z,60.77
2023-02-19T13:36:22.523Z,61.23
2023-02-19T13:37:57.033Z,60.79
2023-02-19T13:39:24.862Z,59.93
2023-02-19T13:40:55.839Z,59.92
2023-02-19T13:42:29.544Z,60.01
2023-02-19T13:44:01.263Z,59.80
2023-02-19T13:48:01.839Z,60.52
2023-02-19T13:49:54.606Z,61.03
2023-02-19T13:52:08.628Z,61.43
2023-02-19T13:54:31.303Z,61.71
2023-02-19T13:56:00.659Z,61.93
2023-02-19T13:57:28.928Z,61.56
2023-02-19T13:59:14.289Z,60.78
2023-02-19T14:01:02.726Z,61.12
2023-02-19T14:03:06.665Z,60.96
2023-02-19T14:04:52.982Z,61.23
2023-02-19T14:06:16.329Z,61.06
2023-02-19T14:08:07.955Z,60.96
2023-02-19T14:09:48.905Z,61.31
2023-02-19T14:11:26.007Z,61.04
2023-02-19T14:13:17.104Z,61.02
2023-02-19T14:14:47.079Z,61.27
2023-02-19T14:16:35.219Z,61.29
2023-02-19T14:18:01.979Z,61.45
2023-02-19T14:20:20.273Z,61.51
2023-02-19T14:21:44.161Z,61.95
2023-02-19T14:23:25.059Z,61.90
2023-02-19T14:24:51.444Z,61.89
2023-02-19T14:26:36.652Z,61.36
2023-02-19T14:44:03.625Z,64.49
2023-02-19T14:49:56.870Z,65.00
2023-02-19T14:51:53.087Z,64.38
2023-02-19T14:54:15.652Z,64.79
2023-02-19T14:56:07.863Z,64.95
2023-02-19T14:57:55.133Z,64.59
2023-02-19T14:59:39.667Z,64.58
2023-02-19T15:01:14.099Z,64.60
2023-02-19T15:02:50.118Z,64.41
2023-02-19T15:07:04.845Z,65.04
2023-02-19T15:09:21.339Z,65.20
2023-02-19T15:11:40.350Z,65.41
2023-02-19T15:13:24.500Z,65.36
2023-02-19T15:15:39.351Z,65.46
2023-02-19T15:20:20.281Z,65.81
2023-02-19T15:23:57.193Z,65.72
2023-02-19T15:25:32.479Z,65.78
2023-02-19T15:27:19.703Z,65.75
2023-02-19T15:28:45.400Z,66.77
2023-02-19T15:30:37.010Z,66.26
2023-02-19T15:34:11.054Z,66.21
2023-02-19T15:35:33.586Z,66.20
2023-02-19T15:37:05.240Z,66.21
2023-02-19T15:38:37.426Z,65.78
2023-02-19T15:40:09.361Z,65.99
2023-02-19T15:41:37.882Z,65.97
2023-02-19T15:43:20.012Z,65.80
2023-02-19T15:44:57.544Z,65.80
2023-02-19T15:46:25.655Z,65.86
2023-02-19T15:48:21.489Z,65.53
2023-02-19T15:50:03.815Z,65.64
2023-02-19T15:51:33.557Z,65.72
2023-02-19T15:53:01.900Z,65.33
2023-02-19T15:54:30.839Z,65.19
2023-02-19T15:56:05.668Z,65.18
2023-02-19T15:57:38.983Z,65.18
2023-02-19T15:59:16.930Z,65.11
2023-02-19T16:00:50.801Z,65.22
2023-02-19T16:02:53.561Z,65.35
2023-02-19T16:04:51.694Z,65.65
2023-02-19T16:06:51.705Z,65.62
2023-02-19T16:08:23.874Z,65.61
2023-02-19T16:10:25.060Z,65.58
2023-02-19T16:12:06.421Z,65.59
2023-02-19T16:13:52.071Z,65.58
2023-02-19T16:15:21.459Z,65.28
2023-02-19T16:17:06.818Z,65.17
2023-02-19T16:18:29.916Z,65.20
2023-02-19T16:19:57.564Z,64.78
2023-02-19T16:21:29.232Z,64.75
2023-02-19T16:22:58.581Z,64.94
2023-02-19T16:24:33.967Z,64.71
2023-02-19T16:26:05.823Z,64.81
2023-02-19T16:27:38.847Z,64.91
2023-02-19T16:29:07.347Z,64.80
2023-02-19T16:30:40.585Z,64.67
2023-02-19T16:32:10.665Z,64.52
2023-02-19T16:33:51.866Z,64.57
2023-02-19T16:38:14.773Z,65.27
2023-02-19T16:39:42.873Z,65.80
2023-02-19T16:41:18.771Z,65.57
2023-02-19T16:43:31.210Z,66.04
2023-02-19T16:44:55.684Z,66.30
2023-02-19T16:46:18.015Z,65.78
2023-02-19T16:47:45.144Z,65.78
2023-02-19T16:49:11.561Z,65.75
2023-02-19T16:50:34.450Z,65.64
2023-02-19T16:51:58.578Z,65.76
2023-02-19T16:53:25.638Z,65.44
2023-02-19T16:54:49.832Z,65.36
2023-02-19T16:56:23.283Z,65.06
2023-02-19T16:57:45.938Z,64.99
2023-02-19T16:59:13.799Z,64.70
2023-02-19T17:00:42.507Z,64.75
2023-02-19T17:02:09.821Z,64.79
2023-02-19T17:03:32.438Z,65.01
2023-02-19T17:04:57.653Z,64.63
2023-02-19T17:06:26.227Z,64.90
2023-02-19T17:07:48.669Z,65.03
2023-02-19T17:09:18.761Z,65.01
2023-02-19T17:10:44.514Z,65.07
2023-02-19T17:12:11.064Z,65.02
2023-02-19T17:13:39.183Z,64.82
2023-02-19T17:15:01.834Z,64.40
2023-02-19T17:16:29.770Z,64.29
2023-02-19T17:18:16.551Z,64.67
2023-02-19T17:19:46.827Z,64.90
2023-02-19T17:21:20.427Z,64.76
2023-02-19T17:23:08.656Z,64.60
2023-02-19T17:25:03.817Z,64.90
2023-02-19T17:26:53.254Z,64.79
2023-02-19T17:28:15.647Z,64.71
2023-02-19T17:29:53.416Z,64.54
2023-02-19T17:31:54.057Z,64.32
2023-02-19T17:33:22.680Z,64.73
2023-02-19T17:34:53.143Z,64.66
2023-02-19T17:36:49.180Z,64.54
2023-02-19T17:38:19.662Z,64.59
2023-02-19T17:41:38.624Z,64.53
2023-02-19T17:43:06.448Z,64.66
2023-02-19T17:44:28.713Z,64.88
2023-02-19T17:45:57.122Z,64.91
2023-02-19T17:47:19.583Z,65.11
2023-02-19T17:48:44.642Z,65.10
2023-02-19T17:50:22.841Z,65.25
2023-02-19T17:52:19.753Z,65.25
2023-02-19T17:53:42.578Z,65.28
2023-02-19T17:55:08.266Z,65.18
2023-02-19T17:56:32.815Z,65.13
2023-02-19T17:57:57.372Z,65.22
2023-02-19T17:59:22.055Z,65.08
2023-02-19T18:00:49.561Z,64.92
2023-02-19T18:07:07.513Z,65.22
2023-02-19T18:08:29.927Z,65.30
2023-02-19T18:09:52.863Z,65.26
2023-02-19T18:11:26.450Z,64.81
2023-02-19T18:12:52.503Z,64.78
2023-02-19T18:14:16.461Z,64.83
2023-02-19T18:15:41.950Z,64.35
2023-02-19T18:17:12.091Z,64.24
2023-02-19T18:18:34.522Z,64.48
2023-02-19T18:19:58.665Z,64.46
2023-02-19T18:21:30.603Z,64.28
2023-02-19T18:23:15.823Z,64.35
2023-02-19T18:24:40.110Z,64.64
2023-02-19T18:26:08.247Z,64.72
2023-02-19T18:27:36.948Z,64.68
2023-02-19T18:29:01.147Z,64.75
2023-02-19T18:30:48.452Z,64.96
2023-02-19T18:33:02.932Z,64.82
2023-02-19T18:35:53.131Z,65.40
2023-02-19T18:37:27.645Z,65.64
2023-02-19T18:39:49.283Z,65.37
2023-02-19T18:41:30.609Z,65.55
2023-02-19T18:43:00.573Z,65.40
2023-02-19T18:44:31.593Z,65.35
2023-02-19T18:45:59.399Z,65.39
2023-02-19T18:47:28.556Z,65.28
2023-02-19T18:49:05.333Z,65.35
2023-02-19T18:51:10.228Z,65.39
2023-02-19T18:53:10.176Z,65.64
2023-02-19T18:54:34.189Z,65.58
2023-02-19T18:56:16.950Z,65.63
2023-02-19T18:57:55.730Z,65.34
2023-02-19T18:59:42.085Z,65.27
2023-02-19T19:01:06.187Z,65.31
2023-02-19T19:02:48.678Z,65.31
2023-02-19T19:04:17.722Z,65.31
2023-02-19T19:05:43.569Z,65.48
2023-02-19T19:09:14.289Z,65.44
2023-02-19T19:10:37.654Z,65.47
2023-02-19T19:12:03.482Z,65.14
2023-02-19T19:13:25.891Z,65.16
2023-02-19T19:14:52.289Z,65.43
2023-02-19T19:16:20.352Z,65.33
2023-02-19T19:17:47.693Z,65.23
2023-02-19T19:19:13.512Z,65.28
2023-02-19T19:20:40.779Z,65.45
2023-02-19T19:22:05.576Z,65.23
2023-02-19T19:23:28.167Z,65.48
2023-02-19T19:24:51.233Z,65.63
2023-02-19T19:26:14.019Z,65.63
2023-02-19T19:28:00.945Z,65.52
2023-02-19T19:29:24.002Z,65.83
2023-02-19T19:32:27.706Z,66.13
2023-02-19T19:33:50.618Z,65.75
2023-02-19T19:35:17.303Z,65.96
2023-02-19T19:36:45.827Z,65.83
2023-02-19T19:38:08.555Z,65.94
2023-02-19T19:39:34.359Z,65.98
2023-02-19T19:41:02.286Z,66.15
2023-02-19T19:42:30.656Z,66.30
2023-02-19T19:43:53.234Z,66.17
2023-02-19T19:45:16.725Z,65.95
2023-02-19T19:46:48.881Z,66.07
2023-02-19T19:48:13.633Z,66.16
2023-02-19T19:49:39.251Z,65.95
2023-02-19T19:51:02.254Z,66.16
2023-02-19T19:52:28.429Z,66.22
2023-02-19T19:53:57.570Z,66.23
2023-02-19T19:55:23.161Z,66.29
2023-02-19T19:56:54.191Z,66.20
2023-02-19T19:58:34.346Z,66.09
2023-02-19T19:59:57.342Z,66.31
2023-02-19T20:01:24.494Z,66.05
2023-02-19T20:02:48.866Z,66.02
2023-02-19T20:05:03.118Z,66.28
2023-02-19T20:06:27.735Z,66.42
2023-02-19T20:07:55.019Z,66.41
2023-02-19T20:09:21.614Z,66.41
2023-02-19T20:10:53.006Z,66.44
2023-02-19T20:12:18.483Z,66.52
2023-02-19T20:13:43.609Z,66.63
2023-02-19T20:15:08.320Z,66.50
2023-02-19T20:16:30.988Z,66.50
2023-02-19T20:17:56.818Z,66.49
2023-02-19T20:19:21.128Z,66.59
2023-02-19T20:20:45.037Z,66.54
2023-02-19T20:22:29.555Z,66.34
2023-02-19T20:24:07.667Z,66.45
2023-02-19T20:25:36.382Z,66.63
2023-02-19T20:27:14.293Z,66.50
2023-02-19T20:28:46.857Z,66.74
2023-02-19T20:30:14.681Z,66.60
2023-02-19T20:31:44.374Z,66.88
2023-02-19T20:33:20.411Z,66.79
2023-02-19T20:35:26.469Z,66.94
2023-02-19T20:36:57.878Z,67.11
2023-02-19T20:38:33.319Z,66.84
2023-02-19T20:40:45.893Z,67.10
2023-02-19T20:42:27.624Z,67.41
2023-02-19T20:44:23.623Z,67.49
2023-02-19T20:46:04.317Z,67.66
2023-02-19T20:47:34.534Z,67.63
2023-02-19T20:49:23.003Z,67.50
2023-02-19T20:51:09.142Z,67.54
2023-02-19T20:52:46.636Z,67.93
2023-02-19T20:54:23.042Z,67.67
2023-02-19T20:56:50.155Z,67.64
2023-02-19T21:13:47.257Z,69.25
2023-02-19T21:39:45.188Z,69.69
2023-02-19T21:59:03.768Z,71.12
2023-02-19T22:04:47.584Z,71.08
2023-02-19T22:06:41.484Z,71.08
2023-02-19T22:09:43.106Z,71.00
2023-02-19T22:12:23.961Z,70.87
2023-02-19T22:14:40.027Z,70.85
2023-02-19T22:16:29.436Z,70.85
2023-02-19T22:19:00.356Z,70.82
2023-02-19T22:21:16.052Z,70.87
2023-02-19T22:31:18.791Z,70.60
2023-02-19T22:39:02.407Z,70.43
2023-02-19T22:44:11.250Z,70.54
2023-02-19T22:52:07.570Z,70.77
2023-02-19T22:57:27.212Z,70.74
2023-02-19T23:00:07.106Z,70.60
2023-02-19T23:02:12.385Z,70.61
2023-02-19T23:03:56.128Z,70.51
2023-02-19T23:06:22.054Z,70.29
2023-02-19T23:07:59.950Z,70.32
2023-02-19T23:11:28.941Z,70.36
2023-02-19T23:13:03.985Z,70.20
2023-02-19T23:14:48.739Z,70.01
2023-02-19T23:16:57.303Z,70.20
2023-02-19T23:18:53.621Z,70.20
2023-02-19T23:30:08.319Z,70.26
2023-02-19T23:32:45.268Z,70.71
2023-02-19T23:38:20.694Z,70.76
2023-02-19T23:47:23.498Z,70.92
2023-02-19T23:49:52.426Z,70.97
